Flight Track Log - Related Links

Times and Time Zones

All times are in EDT time to prevent confusion due to time zone crossing. See the GJS3649 flight status page for this flight to view local times or setup timezone preferences in your user account.

Time Position Orientation Groundspeed Altitude Reporting Facility
EDT Latitude Longitude Course Direction KTS MPH feet Rate Location/Type
Fri 08:57:40 PM 41.9208 -72.6717 174° South 150 173 900  Level Boston Center
Fri 08:58:51 PM 41.8856 -72.6103 128° Southeast 167 192 3,100 2,153 Climbing Boston Center
Fri 08:59:51 PM 41.8336 -72.5517 140° Southeast 222 255 5,600 2,500 Climbing Boston Center
Fri 09:00:00 PM 41.6161 -72.5075 132° Southeast  Level FlightAware Approximate
Fri 09:00:51 PM 41.7669 -72.5125 156° South 254 292 8,100  Level Boston Center
Fri 09:01:00 PM 41.5394 -72.3879 129° Southeast  Level FlightAware Approximate
Fri 09:01:51 PM 41.6897 -72.4872 166° South 284 327 10,800  Level Boston Center
Fri 09:02:00 PM 41.4352 -72.3500 180° South  Level FlightAware Approximate
Fri 09:02:51 PM 41.6022 -72.4567 165° South 314 361 12,300  Level Boston Center
Fri 09:03:00 PM 41.3180 -72.3335 174° South  Level FlightAware Approximate
Fri 09:03:51 PM 41.5042 -72.4428 174° South 348 400 14,600  Level Boston Center
Fri 09:04:51 PM 41.4064 -72.4594 187° South 359 413 16,600 2,200 Climbing Boston Center
Fri 09:05:51 PM 41.3042 -72.4761 187° South 371 427 19,000 1,950 Climbing Boston Center
Fri 09:06:51 PM 41.2125 -72.5311 204° Southwest 355 409 20,500 1,600 Climbing Boston Center
Fri 09:07:51 PM 41.1269 -72.6108 215° Southwest 361 415 22,200 1,700 Climbing Boston Center
Fri 09:08:51 PM 41.0392 -72.6906 214° Southwest 381 438 23,900 1,600 Climbing Boston Center
Fri 09:09:51 PM 40.9494 -72.7725 215° Southwest 392 451 25,400 1,400 Climbing Boston Center
Fri 09:10:51 PM 40.8594 -72.8572 215° Southwest 398 458 26,700 1,300 Climbing Boston Center
Fri 09:11:51 PM 40.7675 -72.9361 213° Southwest 404 465 28,000 1,250 Climbing Boston Center
Fri 09:12:51 PM 40.6839 -73.0094 214° Southwest 404 465 29,200 1,000 Climbing Boston Center
Fri 09:13:51 PM 40.5856 -73.0931 213° Southwest 409 471 30,000 400 Climbing Boston Center
Fri 09:14:51 PM 40.4911 -73.1794 215° Southwest 414 476 30,000  Level Boston Center
Fri 09:16:59 PM 40.2844 -73.3697 215° Southwest 456 525 30,000  Level Washington Center
Fri 09:17:59 PM 40.1883 -73.4597 216° Southwest 445 512 30,000  Level Washington Center
Fri 09:18:57 PM 40.0794 -73.5472 212° Southwest 432 497 30,000  Level Washington Center
Fri 09:19:57 PM 39.9808 -73.6367 215° Southwest 432 497 30,000  Level Washington Center
Fri 09:20:59 PM 39.8822 -73.7206 213° Southwest 438 504 30,000  Level Washington Center
Fri 09:21:59 PM 39.7814 -73.8069 213° Southwest 438 504 30,000  Level Washington Center
Fri 09:22:59 PM 39.6806 -73.8956 214° Southwest 438 504 30,000  Level Washington Center
Fri 09:23:57 PM 39.5797 -73.9814 213° Southwest 438 504 30,000  Level Washington Center
Fri 09:24:57 PM 39.4767 -74.0697 213° Southwest 438 504 30,000  Level Washington Center
Fri 09:25:58 PM 39.3778 -74.1578 215° Southwest 433 498 30,000  Level Washington Center
Fri 09:26:59 PM 39.2767 -74.2431 213° Southwest 433 498 30,000  Level Washington Center
Fri 09:27:58 PM 39.1794 -74.3250 213° Southwest 433 498 30,000  Level Washington Center
Fri 09:28:59 PM 39.0989 -74.3933 213° Southwest 420 483 30,000  Level Washington Center
Fri 09:29:57 PM 39.0039 -74.4778 215° Southwest 420 483 30,000  Level Washington Center
Fri 09:30:57 PM 38.9044 -74.5594 213° Southwest 427 491 30,000  Level Washington Center
Fri 09:31:58 PM 38.8053 -74.6433 213° Southwest 427 491 30,000  Level Washington Center
Fri 09:32:58 PM 38.7058 -74.7269 213° Southwest 427 491 30,000  Level Washington Center
Fri 09:33:59 PM 38.6083 -74.8106 214° Southwest 432 497 30,000  Level Washington Center
Fri 09:34:58 PM 38.5131 -74.8886 213° Southwest 432 497 30,000  Level Washington Center
Fri 09:35:58 PM 38.4153 -74.9689 213° Southwest 427 491 30,000  Level Washington Center
Fri 09:36:58 PM 38.3178 -75.0492 213° Southwest 427 491 30,000  Level Washington Center
Fri 09:37:59 PM 38.2264 -75.1344 216° Southwest 422 486 30,000  Level Washington Center
Fri 09:38:59 PM 38.1286 -75.2117 212° Southwest 422 486 30,000 -356 Level Washington Center
Fri 09:39:57 PM 38.0350 -75.2886 213° Southwest 417 480 29,300 -1,068 Descending Washington Center
Fri 09:40:57 PM 37.9372 -75.3681 213° Southwest 417 480 27,900 -1,388 Descending Washington Center
Fri 09:41:58 PM 37.8436 -75.4419 212° Southwest 417 480 26,500 -934 Descending Washington Center
Fri 09:42:59 PM 37.7561 -75.5156 214° Southwest 405 466 26,000 -252 Descending Washington Center
Fri 09:43:57 PM 37.6664 -75.5867 212° Southwest 392 451 26,000  Level Washington Center
Fri 09:44:58 PM 37.5786 -75.6547 212° Southwest 386 444 26,000  Level Washington Center
Fri 09:45:59 PM 37.4889 -75.7306 214° Southwest 386 444 26,000  Level Washington Center
Fri 09:46:59 PM 37.4014 -75.8011 213° Southwest 386 444 26,000  Level Washington Center
Fri 09:47:57 PM 37.3094 -75.8739 212° Southwest 392 451 26,000  Level Washington Center
Fri 09:48:57 PM 37.2089 -75.9544 213° Southwest 397 457 26,000  Level Washington Center
Fri 09:49:57 PM 37.1169 -76.0269 212° Southwest 397 457 26,000  Level Washington Center
Fri 09:50:57 PM 37.0250 -76.1017 213° Southwest 397 457 26,000 -496 Level Washington Center
Fri 09:51:58 PM 36.9369 -76.1767 214° Southwest 397 457 25,000 -984 Descending Washington Center
Fri 09:52:59 PM 36.9447 -76.3014 274° West 317 365 24,000 -504 Descending Washington Center
Fri 09:53:57 PM 37.0044 -76.4058 306° West 314 361 24,000  Level Washington Center
Fri 09:54:58 PM 37.0642 -76.5158 304° West 345 397 24,000  Level Washington Center
Fri 09:55:59 PM 37.1175 -76.6286 301° West 363 418 24,000  Level Washington Center
Fri 09:56:57 PM 37.1581 -76.7489 293° West 368 423 24,000  Level Washington Center
Fri 09:57:59 PM 37.1986 -76.8694 293° West 373 429 24,000  Level Washington Center
Fri 09:58:59 PM 37.2411 -76.9875 294° West 378 435 24,000  Level Washington Center
Fri 09:59:57 PM 37.2794 -77.0900 295° West 372 428 24,000 -559 Level Washington Center
Fri 10:00:57 PM 37.3492 -77.1908 311° West 351 404 22,900 -1,140 Descending Washington Center
Fri 10:01:58 PM 37.4464 -77.2425 337° Northwest 359 413 21,700 -934 Descending Washington Center
Fri 10:02:59 PM 37.5375 -77.2994 334° Northwest 359 413 21,000 -347 Descending Washington Center
Fri 10:03:59 PM 37.6264 -77.3564 333° Northwest 359 413 21,000 -305 Level Washington Center
Fri 10:04:57 PM 37.7111 -77.4108 333° Northwest 352 405 20,400 -1,068 Descending Washington Center
Fri 10:05:57 PM 37.7936 -77.4681 331° Northwest 338 389 18,900 -1,488 Descending Washington Center
Fri 10:06:58 PM 37.8761 -77.5200 334° Northwest 338 389 17,400 -1,190 Descending Washington Center
Fri 10:07:58 PM 37.9611 -77.5644 338° Northwest 332 382 16,500 -1,000 Descending Washington Center
Fri 10:08:58 PM 38.0386 -77.5347 17° North 308 354 15,400 -1,311 Descending Washington Center
Fri 10:09:57 PM 38.1272 -77.4817 25° Northeast 313 360 13,900 -1,488 Descending Washington Center
Fri 10:10:59 PM 38.1992 -77.4017 41° Northeast 330 380 12,400 -934 Descending Washington Center
Fri 10:11:59 PM 38.1481 -77.3292 132° Southeast 179 206 12,000 -661 Descending Washington Center
Fri 10:12:57 PM 38.0689 -77.3272 179° South 165 190 11,100 -1,109 Descending Washington Center
Fri 10:13:58 PM 37.9836 -77.3147 173° South 235 270 9,800 -1,289 Descending Washington Center
Fri 10:14:58 PM 37.9067 -77.3078 176° South 267 307 8,500 -1,412 Descending Washington Center
Fri 10:15:57 PM 37.8353 -77.3244 190° South 272 313 7,000 -1,750 Descending Washington Center
Fri 10:16:58 PM 37.7661 -77.3492 196° South 272 313 5,000 -1,884 Descending Washington Center
Fri 10:17:58 PM 37.6992 -77.3714 195° South 266 306 3,200 -1,513 Descending Washington Center
Fri 10:18:57 PM 37.6467 -77.3936 199° South 242 278 2,000 -650 Descending Washington Center
Fri 10:19:58 PM 37.5989 -77.3900 177° South 217 250 1,900 -393 Descending Washington Center
Fri 10:20:59 PM 37.5597 -77.3575 147° Southeast 172 198 1,200 -689 Descending Washington Center
Fri 10:23:00 PM 37.5000 -77.3167 169° South  Level FlightAware Approximate

Login

Don't have an account? Register now (free) for customized features, flight alerts, and more!